createdAt,value
2022-08-16T00:00:04.226Z,100140.91
2022-08-16T00:00:52.857Z,100133.16
2022-08-16T00:01:40.779Z,100141.69
2022-08-16T00:02:27.687Z,100136.50
2022-08-16T00:03:15.185Z,100140.00
2022-08-16T00:04:01.858Z,100133.81
2022-08-16T00:04:52.040Z,100140.00
2022-08-16T00:05:47.928Z,100136.81
2022-08-16T00:06:36.507Z,100136.81
2022-08-16T00:07:25.680Z,100144.88
2022-08-16T00:08:35.887Z,100142.50
2022-08-16T00:09:23.471Z,100144.38
2022-08-16T00:10:20.819Z,100142.28
2022-08-16T00:11:15.270Z,100139.91
2022-08-16T00:12:03.435Z,100142.09
2022-08-16T00:12:52.473Z,100142.41
2022-08-16T00:13:42.482Z,100144.28
2022-08-16T00:14:32.842Z,100150.47
2022-08-16T00:15:26.067Z,100143.00
2022-08-16T00:17:01.703Z,100148.34
2022-08-16T00:17:56.007Z,100147.56
2022-08-16T00:18:43.889Z,100150.06
2022-08-16T00:19:41.481Z,100152.25
2022-08-16T00:20:28.694Z,100148.25
2022-08-16T00:21:16.427Z,100142.09
2022-08-16T00:22:10.390Z,100151.25
2022-08-16T00:23:00.296Z,100146.50
2022-08-16T00:23:46.877Z,100152.66
2022-08-16T00:24:34.642Z,100151.06
2022-08-16T00:26:36.159Z,100148.78
2022-08-16T00:26:36.516Z,100155.44
2022-08-16T00:27:31.028Z,100149.25
2022-08-16T00:28:17.662Z,100147.47
2022-08-16T00:29:04.614Z,100153.31
2022-08-16T00:30:08.739Z,100154.44
2022-08-16T00:30:55.905Z,100160.59
2022-08-16T00:32:00.647Z,100156.31
2022-08-16T00:32:57.126Z,100159.31
2022-08-16T00:33:50.266Z,100158.22
2022-08-16T00:34:41.418Z,100146.97
2022-08-16T00:35:35.044Z,100156.63
2022-08-16T00:36:22.565Z,100160.31
2022-08-16T00:37:10.974Z,100156.53
2022-08-16T00:37:59.437Z,100154.16
2022-08-16T00:38:46.498Z,100155.53
2022-08-16T00:39:34.736Z,100153.31
2022-08-16T00:40:33.982Z,100156.00
2022-08-16T00:41:21.949Z,100144.28
2022-08-16T00:42:10.493Z,100159.81
2022-08-16T00:42:57.080Z,100145.88
2022-08-16T00:43:44.482Z,100153.63
2022-08-16T00:44:31.856Z,100153.06
2022-08-16T00:45:55.433Z,100150.38
2022-08-16T00:47:02.382Z,100155.44
2022-08-16T00:47:55.283Z,100160.59
2022-08-16T00:48:45.554Z,100159.22
2022-08-16T00:49:39.577Z,100160.00
2022-08-16T00:50:35.785Z,100169.19
2022-08-16T00:51:25.046Z,100168.56
2022-08-16T00:52:30.115Z,100162.31
2022-08-16T00:53:19.571Z,100163.41
2022-08-16T00:54:06.299Z,100163.28
2022-08-16T00:54:52.932Z,100159.00
2022-08-16T00:55:46.787Z,100165.69
2022-08-16T00:56:57.948Z,100161.91
2022-08-16T00:57:58.353Z,100159.22
2022-08-16T00:58:48.804Z,100164.00
2022-08-16T00:59:54.800Z,100159.41
2022-08-16T01:00:54.020Z,100158.44
2022-08-16T01:01:44.676Z,100159.72
2022-08-16T01:02:33.076Z,100161.59
2022-08-16T01:03:30.188Z,100166.00
2022-08-16T01:04:29.462Z,100150.53
2022-08-16T01:05:17.016Z,100161.81
2022-08-16T01:06:32.503Z,100170.38
2022-08-16T01:07:17.669Z,100153.22
2022-08-16T01:08:34.845Z,100170.69
2022-08-16T01:09:14.832Z,100170.94
2022-08-16T01:10:05.722Z,100166.66
2022-08-16T01:11:05.360Z,100171.56
2022-08-16T01:11:56.763Z,100171.56
2022-08-16T01:12:44.617Z,100175.34
2022-08-16T01:13:34.221Z,100170.25
2022-08-16T01:14:30.160Z,100171.66
2022-08-16T01:15:18.306Z,100171.66
2022-08-16T01:16:12.731Z,100172.22
2022-08-16T01:17:08.440Z,100171.75
2022-08-16T01:17:57.177Z,100170.16
2022-08-16T01:18:52.126Z,100159.19
2022-08-16T01:19:46.199Z,100165.38
2022-08-16T01:20:40.747Z,100163.28
2022-08-16T01:21:44.873Z,100166.28
2022-08-16T01:22:56.030Z,100161.16
2022-08-16T01:24:04.450Z,100171.44
2022-08-16T01:24:58.141Z,100165.56
2022-08-16T01:26:00.396Z,100170.91
2022-08-16T01:27:08.048Z,100167.72
2022-08-16T01:28:00.376Z,100156.97
2022-08-16T01:28:49.471Z,100158.88
2022-08-16T01:30:02.264Z,100152.22
2022-08-16T01:30:57.201Z,100160.56
2022-08-16T01:31:45.090Z,100159.97
2022-08-16T01:32:36.313Z,100155.41
2022-08-16T01:33:25.024Z,100155.69
2022-08-16T01:34:25.068Z,100153.31
2022-08-16T01:35:20.997Z,100162.16
2022-08-16T01:36:12.416Z,100153.59
2022-08-16T01:37:10.302Z,100156.59
2022-08-16T01:37:58.006Z,100145.34
2022-08-16T01:38:57.047Z,100144.56
2022-08-16T01:39:45.820Z,100151.78
2022-08-16T01:40:32.441Z,100145.63
2022-08-16T01:41:25.000Z,100151.78
2022-08-16T01:42:13.709Z,100152.09
2022-08-16T01:43:06.141Z,100151.59
2022-08-16T01:44:01.183Z,100147.91
2022-08-16T01:44:49.029Z,100149.81
2022-08-16T01:45:40.506Z,100155.44
2022-08-16T01:46:42.287Z,100149.06
2022-08-16T01:47:36.575Z,100145.59
2022-08-16T01:48:35.723Z,100144.38
2022-08-16T01:49:42.901Z,100149.69
2022-08-16T01:50:42.964Z,100154.81
2022-08-16T01:51:42.222Z,100151.03
2022-08-16T01:52:31.067Z,100154.00
2022-08-16T01:53:28.543Z,100152.69
2022-08-16T01:54:31.446Z,100151.91
2022-08-16T01:55:21.621Z,100154.91
2022-08-16T01:56:23.495Z,100153.88
2022-08-16T01:57:11.962Z,100148.00
2022-08-16T01:58:00.081Z,100147.72
2022-08-16T01:58:47.876Z,100158.44
2022-08-16T01:59:37.429Z,100151.19
2022-08-16T02:00:29.152Z,100152.78
2022-08-16T02:01:18.286Z,100152.28
2022-08-16T02:02:27.310Z,100150.69
2022-08-16T02:03:12.827Z,100159.22
2022-08-16T02:04:10.919Z,100153.38
2022-08-16T02:05:00.180Z,100154.97
2022-08-16T02:05:51.885Z,100152.88
2022-08-16T02:06:46.127Z,100163.59
2022-08-16T02:07:38.863Z,100157.72
2022-08-16T02:08:34.722Z,100159.91
2022-08-16T02:09:23.913Z,100154.56
2022-08-16T02:10:12.173Z,100150.34
2022-08-16T02:11:06.174Z,100156.16
2022-08-16T02:11:58.492Z,100152.94
2022-08-16T02:12:51.346Z,100154.34
2022-08-16T02:13:43.899Z,100149.28
2022-08-16T02:14:36.497Z,100151.13
2022-08-16T02:15:27.023Z,100155.41
2022-08-16T02:16:18.302Z,100152.72
2022-08-16T02:17:09.864Z,100155.72
2022-08-16T02:17:58.908Z,100148.84
2022-08-16T02:18:48.819Z,100148.53
2022-08-16T02:19:59.330Z,100153.13
2022-08-16T02:20:53.459Z,100147.53
2022-08-16T02:22:08.416Z,100141.94
2022-08-16T02:22:49.304Z,100151.59
2022-08-16T02:23:38.028Z,100139.25
2022-08-16T02:24:31.786Z,100146.78
2022-08-16T02:25:19.349Z,100144.13
2022-08-16T02:26:06.145Z,100142.03
2022-08-16T02:26:52.704Z,100139.03
2022-08-16T02:27:50.773Z,100140.94
2022-08-16T02:28:38.441Z,100135.38
2022-08-16T02:29:33.449Z,100137.22
2022-08-16T02:30:37.111Z,100142.91
2022-08-16T02:32:03.814Z,100146.09
2022-08-16T02:33:01.012Z,100144.78
2022-08-16T02:33:50.175Z,100140.00
2022-08-16T02:34:47.375Z,100137.91
2022-08-16T02:35:53.854Z,100144.56
2022-08-16T02:36:49.921Z,100141.59
2022-08-16T02:37:52.089Z,100145.88
2022-08-16T02:38:41.192Z,100145.34
2022-08-16T02:39:27.902Z,100141.88
2022-08-16T02:40:17.840Z,100140.88
2022-08-16T02:41:09.570Z,100139.00
2022-08-16T02:41:57.996Z,100144.94
2022-08-16T02:42:49.579Z,100150.81
2022-08-16T02:43:37.726Z,100145.94
2022-08-16T02:44:28.559Z,100150.50
2022-08-16T02:45:17.494Z,100149.72
2022-08-16T02:46:08.049Z,100150.81
2022-08-16T02:46:56.225Z,100147.91
2022-08-16T02:48:00.301Z,100147.09
2022-08-16T02:48:49.440Z,100139.63
2022-08-16T02:50:28.033Z,100147.69
2022-08-16T02:50:55.187Z,100143.69
2022-08-16T02:51:51.369Z,100138.63
2022-08-16T02:52:37.974Z,100141.59
2022-08-16T02:53:26.943Z,100147.25
2022-08-16T02:54:14.989Z,100145.66
2022-08-16T02:55:08.052Z,100147.81
2022-08-16T02:55:55.448Z,100148.63
2022-08-16T02:56:47.828Z,100147.81
2022-08-16T02:57:35.260Z,100156.94
2022-08-16T02:58:25.055Z,100148.91
2022-08-16T02:59:14.484Z,100150.00
2022-08-16T03:00:34.533Z,100154.06
2022-08-16T03:01:24.074Z,100152.72
2022-08-16T03:02:31.936Z,100154.34
2022-08-16T03:03:21.114Z,100146.88
2022-08-16T03:04:40.782Z,100142.91
2022-08-16T03:05:16.056Z,100143.97
2022-08-16T03:06:03.117Z,100140.22
2022-08-16T03:07:12.460Z,100141.28
2022-08-16T03:08:50.652Z,100146.66
2022-08-16T03:09:18.424Z,100147.44
2022-08-16T03:10:12.581Z,100141.59
2022-08-16T03:11:17.936Z,100143.75
2022-08-16T03:12:08.242Z,100137.09
2022-08-16T03:12:55.074Z,100141.66
2022-08-16T03:13:51.572Z,100137.09
2022-08-16T03:14:39.871Z,100133.88
2022-08-16T03:15:29.646Z,100145.41
2022-08-16T03:16:32.814Z,100142.75
2022-08-16T03:17:23.534Z,100142.75
2022-08-16T03:18:34.703Z,100141.13
2022-08-16T03:19:47.038Z,100144.91
2022-08-16T03:20:39.440Z,100147.59
2022-08-16T03:21:28.805Z,100148.16
2022-08-16T03:22:28.787Z,100148.16
2022-08-16T03:23:17.105Z,100144.41
2022-08-16T03:24:03.956Z,100138.56
2022-08-16T03:24:50.494Z,100149.53
2022-08-16T03:25:44.008Z,100152.22
2022-08-16T03:26:32.128Z,100144.41
2022-08-16T03:27:19.384Z,100153.56
2022-08-16T03:28:08.211Z,100148.22
2022-08-16T03:28:55.060Z,100154.66
2022-08-16T03:29:54.871Z,100151.97
2022-08-16T03:30:42.903Z,100156.03
2022-08-16T03:31:34.509Z,100157.31
2022-08-16T03:32:21.857Z,100150.66
2022-08-16T03:33:08.530Z,100152.53
2022-08-16T03:34:02.619Z,100156.28
2022-08-16T03:34:49.931Z,100153.78
2022-08-16T03:35:40.368Z,100158.41
2022-08-16T03:36:47.600Z,100160.06
2022-08-16T03:38:01.686Z,100161.66
2022-08-16T03:38:42.754Z,100160.63
2022-08-16T03:39:34.397Z,100161.72
2022-08-16T03:40:33.032Z,100166.00
2022-08-16T03:41:25.781Z,100159.63
2022-08-16T03:42:20.556Z,100164.97
2022-08-16T03:43:20.743Z,100167.66
2022-08-16T03:44:10.806Z,100162.06
2022-08-16T03:45:03.362Z,100157.78
2022-08-16T03:45:57.251Z,100168.50
2022-08-16T03:46:50.109Z,100157.28
2022-08-16T03:47:47.380Z,100158.84
2022-08-16T03:48:45.144Z,100157.78
2022-08-16T03:49:37.763Z,100149.81
2022-08-16T03:50:27.262Z,100163.44
2022-08-16T03:51:15.772Z,100159.16
2022-08-16T03:52:14.843Z,100166.66
2022-08-16T03:53:06.021Z,100158.13
2022-08-16T03:54:00.968Z,100160.81
2022-08-16T03:54:57.386Z,100158.69
2022-08-16T03:55:45.337Z,100159.28
2022-08-16T03:56:32.749Z,100157.66
2022-08-16T03:57:21.363Z,100161.72
2022-08-16T03:58:07.854Z,100162.50
2022-08-16T03:58:56.215Z,100151.84
2022-08-16T03:59:48.481Z,100160.41
2022-08-16T04:00:41.187Z,100153.44
2022-08-16T04:01:34.029Z,100157.72
2022-08-16T04:02:31.583Z,100158.81
2022-08-16T04:03:20.338Z,100160.97
2022-08-16T04:04:09.082Z,100156.13
2022-08-16T04:04:56.118Z,100162.06
2022-08-16T04:05:48.317Z,100163.13
2022-08-16T04:06:37.495Z,100161.53
2022-08-16T04:07:24.778Z,100161.53
2022-08-16T04:08:23.794Z,100161.31
2022-08-16T04:09:13.606Z,100165.59
2022-08-16T04:10:00.448Z,100169.06
2022-08-16T04:11:07.220Z,100158.34
2022-08-16T04:11:54.264Z,100166.38
2022-08-16T04:12:53.741Z,100164.50
2022-08-16T04:14:00.655Z,100166.94
2022-08-16T04:14:53.474Z,100172.03
2022-08-16T04:15:41.542Z,100177.38
2022-08-16T04:16:37.332Z,100174.41
2022-08-16T04:17:43.729Z,100178.97
2022-08-16T04:18:31.413Z,100178.19
2022-08-16T04:19:19.902Z,100177.97
2022-08-16T04:20:23.829Z,100171.78
2022-08-16T04:21:29.406Z,100177.97
2022-08-16T04:22:17.329Z,100174.22
2022-08-16T04:23:10.068Z,100177.97
2022-08-16T04:23:59.646Z,100179.81
2022-08-16T04:24:55.128Z,100177.13
2022-08-16T04:25:48.908Z,100181.72
2022-08-16T04:26:35.672Z,100175.03
2022-08-16T04:27:24.582Z,100184.69
2022-08-16T04:28:51.870Z,100182.00
2022-08-16T04:29:25.004Z,100175.81
2022-08-16T04:30:32.202Z,100176.13
2022-08-16T04:31:23.609Z,100180.34
2022-08-16T04:32:10.579Z,100181.19
2022-08-16T04:33:00.896Z,100179.88
2022-08-16T04:33:51.434Z,100175.34
2022-08-16T04:34:41.832Z,100186.81
2022-08-16T04:35:34.253Z,100182.53
2022-08-16T04:36:21.420Z,100183.03
2022-08-16T04:37:08.286Z,100186.53
2022-08-16T04:37:59.601Z,100184.16
2022-08-16T04:39:02.429Z,100190.59
2022-08-16T04:39:55.804Z,100181.75
2022-08-16T04:40:45.381Z,100181.75
2022-08-16T04:41:37.470Z,100186.25
2022-08-16T04:42:29.715Z,100186.53
2022-08-16T04:43:18.487Z,100186.03
2022-08-16T04:44:32.664Z,100188.38
2022-08-16T04:45:14.717Z,100190.53
2022-08-16T04:46:05.876Z,100186.25
2022-08-16T04:47:24.187Z,100181.13
2022-08-16T04:48:22.036Z,100181.41
2022-08-16T04:49:19.906Z,100184.09
2022-08-16T04:50:14.651Z,100184.88
2022-08-16T04:51:16.884Z,100194.25
2022-08-16T04:52:05.515Z,100193.16
2022-08-16T04:53:12.232Z,100190.22
2022-08-16T04:54:04.240Z,100197.97
2022-08-16T04:54:52.727Z,100200.34
2022-08-16T04:55:40.102Z,100198.47
2022-08-16T04:56:26.992Z,100201.97
2022-08-16T04:57:13.843Z,100194.72
2022-08-16T04:58:02.730Z,100204.34
2022-08-16T04:59:11.512Z,100200.06
2022-08-16T04:59:58.205Z,100200.59
2022-08-16T05:00:44.898Z,100201.91
2022-08-16T05:01:58.191Z,100200.31
2022-08-16T05:02:43.880Z,100203.50
2022-08-16T05:03:35.872Z,100201.13
2022-08-16T05:04:29.932Z,100202.13
2022-08-16T05:05:17.973Z,100203.75
2022-08-16T05:06:07.136Z,100201.06
2022-08-16T05:06:56.249Z,100211.50
2022-08-16T05:07:58.304Z,100204.00
2022-08-16T05:08:50.413Z,100206.38
2022-08-16T05:09:49.015Z,100209.53
2022-08-16T05:10:37.503Z,100210.88
2022-08-16T05:11:31.908Z,100208.47
2022-08-16T05:12:30.476Z,100209.50
2022-08-16T05:13:19.124Z,100211.91
2022-08-16T05:14:07.325Z,100213.50
2022-08-16T05:15:02.196Z,100216.97
2022-08-16T05:15:51.068Z,100211.31
2022-08-16T05:16:44.578Z,100216.41
2022-08-16T05:17:32.607Z,100223.88
2022-08-16T05:18:23.396Z,100219.31
2022-08-16T05:19:16.344Z,100213.69
2022-08-16T05:20:38.466Z,100213.69
2022-08-16T05:21:37.956Z,100218.75
2022-08-16T05:22:28.480Z,100220.06
2022-08-16T05:23:18.833Z,100221.66
2022-08-16T05:24:09.225Z,100217.59
2022-08-16T05:24:57.026Z,100213.06
2022-08-16T05:25:48.829Z,100220.81
2022-08-16T05:26:40.911Z,100215.97
2022-08-16T05:27:32.076Z,100220.78
2022-08-16T05:28:30.981Z,100216.72
2022-08-16T05:29:24.944Z,100218.81
2022-08-16T05:30:37.081Z,100227.63
2022-08-16T05:31:32.541Z,100219.28
2022-08-16T05:32:32.403Z,100217.09
2022-08-16T05:33:28.042Z,100223.78
2022-08-16T05:34:21.348Z,100220.00
2022-08-16T05:35:11.652Z,100216.75
2022-08-16T05:36:14.256Z,100227.19
2022-08-16T05:37:06.241Z,100226.13
2022-08-16T05:37:56.699Z,100221.28
2022-08-16T05:38:46.912Z,100214.78
2022-08-16T05:39:37.629Z,100221.19
2022-08-16T05:40:28.043Z,100226.56
2022-08-16T05:41:15.548Z,100222.22
2022-08-16T05:42:04.952Z,100232.34
2022-08-16T05:42:56.106Z,100228.59
2022-08-16T05:43:47.001Z,100229.13
2022-08-16T05:44:44.640Z,100231.28
2022-08-16T05:45:37.179Z,100227.22
2022-08-16T05:46:30.013Z,100226.13
2022-08-16T05:47:24.176Z,100224.47
2022-08-16T05:48:11.437Z,100229.56
2022-08-16T05:49:38.433Z,100225.72
2022-08-16T05:50:28.179Z,100221.94
2022-08-16T05:51:37.523Z,100223.53
2022-08-16T05:52:27.877Z,100224.53
2022-08-16T05:53:14.696Z,100232.59
2022-08-16T05:54:24.969Z,100229.91
2022-08-16T05:55:15.271Z,100237.03
2022-08-16T05:56:03.237Z,100236.75
2022-08-16T05:56:52.421Z,100238.31
2022-08-16T05:57:41.858Z,100235.06
2022-08-16T05:58:33.133Z,100238.25
2022-08-16T05:59:21.943Z,100233.69
2022-08-16T06:00:12.343Z,100239.84
2022-08-16T06:01:11.010Z,100240.38
2022-08-16T06:02:01.023Z,100236.81
2022-08-16T06:02:52.283Z,100234.31
2022-08-16T06:04:01.479Z,100240.72
2022-08-16T06:04:54.408Z,100232.66
2022-08-16T06:05:41.690Z,100235.09
2022-08-16T06:06:29.288Z,100228.09
2022-08-16T06:07:24.905Z,100234.69
2022-08-16T06:08:32.550Z,100230.16
2022-08-16T06:09:43.042Z,100230.63
2022-08-16T06:10:33.026Z,100232.66
2022-08-16T06:11:21.449Z,100230.72
2022-08-16T06:12:27.349Z,100235.78
2022-08-16T06:13:17.104Z,100229.59
2022-08-16T06:14:07.468Z,100232.78
2022-08-16T06:15:07.975Z,100236.00
2022-08-16T06:15:59.252Z,100228.41
2022-08-16T06:16:50.752Z,100234.31
2022-08-16T06:17:41.700Z,100234.44
2022-08-16T06:18:36.561Z,100233.63
2022-08-16T06:19:24.035Z,100227.16
2022-08-16T06:20:25.430Z,100235.41
2022-08-16T06:21:22.509Z,100235.63
2022-08-16T06:22:19.437Z,100240.91
2022-08-16T06:23:20.316Z,100238.44
2022-08-16T06:24:53.293Z,100241.44
2022-08-16T06:25:35.361Z,100236.16
2022-08-16T06:26:23.764Z,100246.31
2022-08-16T06:27:21.735Z,100241.75
2022-08-16T06:28:17.083Z,100237.38
2022-08-16T06:29:18.459Z,100231.38
2022-08-16T06:30:11.267Z,100238.47
2022-08-16T06:31:02.007Z,100239.75
2022-08-16T06:31:50.632Z,100227.81
2022-08-16T06:32:42.955Z,100236.63
2022-08-16T06:33:41.269Z,100239.22
2022-08-16T06:34:55.738Z,100232.22
2022-08-16T06:35:41.547Z,100231.72
2022-08-16T06:36:29.297Z,100233.22
2022-08-16T06:37:37.624Z,100226.66
2022-08-16T06:38:33.908Z,100236.81
2022-08-16T06:39:25.849Z,100245.38
2022-08-16T06:40:17.232Z,100239.59
2022-08-16T06:41:13.447Z,100248.16
2022-08-16T06:42:01.923Z,100244.06
2022-08-16T06:43:17.139Z,100244.25
2022-08-16T06:44:06.522Z,100252.84
2022-08-16T06:44:53.178Z,100246.38
2022-08-16T06:45:51.573Z,100251.75
2022-08-16T06:46:50.575Z,100250.94
2022-08-16T06:47:54.349Z,100252.72
2022-08-16T06:48:51.745Z,100254.63
2022-08-16T06:49:38.699Z,100265.88
2022-08-16T06:50:29.567Z,100259.41
2022-08-16T06:51:20.566Z,100255.31
2022-08-16T06:52:13.948Z,100265.47
2022-08-16T06:53:16.695Z,100262.38
2022-08-16T06:54:20.519Z,100260.00
2022-08-16T06:55:12.831Z,100266.66
2022-08-16T06:56:14.241Z,100274.44
2022-08-16T06:57:18.055Z,100278.41
2022-08-16T06:58:08.102Z,100275.91
2022-08-16T06:58:55.940Z,100270.91
2022-08-16T06:59:52.453Z,100268.72
2022-08-16T07:00:49.419Z,100276.66
2022-08-16T07:01:44.347Z,100279.88
2022-08-16T07:02:35.182Z,100275.28
2022-08-16T07:03:26.889Z,100272.28
2022-08-16T07:04:31.527Z,100278.25
2022-08-16T07:05:19.976Z,100277.22
2022-08-16T07:06:34.031Z,100274.22
2022-08-16T07:07:32.394Z,100280.50
2022-08-16T07:08:21.212Z,100278.22
2022-08-16T07:09:09.392Z,100283.78
2022-08-16T07:09:57.654Z,100287.59
2022-08-16T07:10:45.547Z,100288.38
2022-08-16T07:11:46.098Z,100286.19
2022-08-16T07:12:47.738Z,100286.38
2022-08-16T07:14:00.637Z,100291.75
2022-08-16T07:15:00.870Z,100285.44
2022-08-16T07:15:50.470Z,100284.66
2022-08-16T07:16:41.767Z,100290.63
2022-08-16T07:17:29.784Z,100284.47
2022-08-16T07:18:24.452Z,100291.91
2022-08-16T07:19:11.306Z,100295.44
2022-08-16T07:20:29.170Z,100291.91
2022-08-16T07:21:13.568Z,100290.53
2022-08-16T07:22:02.479Z,100294.84
2022-08-16T07:22:53.086Z,100295.44
2022-08-16T07:23:56.858Z,100285.13
2022-08-16T07:24:52.448Z,100291.28
2022-08-16T07:25:40.275Z,100290.97
2022-08-16T07:26:28.164Z,100290.50
2022-08-16T07:27:17.997Z,100286.41
2022-08-16T07:28:05.758Z,100296.53
2022-08-16T07:29:00.744Z,100293.06
2022-08-16T07:29:48.261Z,100295.44
2022-08-16T07:30:39.655Z,100290.78
2022-08-16T07:31:41.203Z,100292.88
2022-08-16T07:32:31.476Z,100293.78
2022-08-16T07:33:24.364Z,100291.25
2022-08-16T07:34:35.319Z,100292.22
2022-08-16T07:35:23.526Z,100287.97
2022-08-16T07:36:12.573Z,100287.31
2022-08-16T07:37:11.297Z,100296.59
2022-08-16T07:38:20.301Z,100291.34
2022-08-16T07:39:22.229Z,100287.56
2022-08-16T07:40:11.360Z,100291.53
2022-08-16T07:41:10.268Z,100293.16
2022-08-16T07:42:03.411Z,100284.59
2022-08-16T07:42:54.169Z,100283.97
2022-08-16T07:43:43.276Z,100286.38
2022-08-16T07:44:48.987Z,100282.25
2022-08-16T07:45:37.155Z,100289.53
2022-08-16T07:46:37.702Z,100287.50
2022-08-16T07:47:32.540Z,100286.84
2022-08-16T07:48:20.412Z,100294.50
2022-08-16T07:49:11.883Z,100287.06
2022-08-16T07:50:05.642Z,100293.13
2022-08-16T07:50:59.551Z,100304.88
2022-08-16T07:51:47.263Z,100301.69
2022-08-16T07:52:38.850Z,100298.38
2022-08-16T07:53:28.787Z,100301.22
2022-08-16T07:54:17.233Z,100301.38
2022-08-16T07:55:14.988Z,100295.81
2022-08-16T07:56:04.479Z,100302.81
2022-08-16T07:56:57.707Z,100297.88
2022-08-16T07:57:58.168Z,100297.25
2022-08-16T07:58:55.449Z,100300.13
2022-08-16T07:59:46.070Z,100302.81
2022-08-16T08:00:36.105Z,100303.59
2022-08-16T08:01:25.437Z,100303.28
2022-08-16T08:02:20.181Z,100301.53
2022-08-16T08:03:07.349Z,100305.66
2022-08-16T08:03:58.387Z,100302.94
2022-08-16T08:04:53.682Z,100297.09
2022-08-16T08:05:40.439Z,100307.25
2022-08-16T08:06:32.754Z,100306.63
2022-08-16T08:07:29.295Z,100303.91
2022-08-16T08:08:51.266Z,100308.81
2022-08-16T08:09:27.960Z,100310.41
2022-08-16T08:10:19.162Z,100300.19
2022-08-16T08:11:18.251Z,100302.88
2022-08-16T08:12:06.507Z,100301.41
2022-08-16T08:12:58.508Z,100303.16
2022-08-16T08:13:47.561Z,100298.31
2022-08-16T08:14:36.846Z,100301.06
2022-08-16T08:15:25.494Z,100301.34
2022-08-16T08:16:18.362Z,100298.63
2022-08-16T08:17:08.568Z,100298.16
2022-08-16T08:17:56.489Z,100297.88
2022-08-16T08:18:56.121Z,100295.13
2022-08-16T08:19:53.322Z,100297.31
2022-08-16T08:20:44.481Z,100298.75
2022-08-16T08:21:59.586Z,100300.34
2022-08-16T08:23:08.284Z,100298.31
2022-08-16T08:23:59.415Z,100304.50
2022-08-16T08:24:47.005Z,100300.69
2022-08-16T08:25:53.775Z,100292.88
2022-08-16T08:26:42.936Z,100306.31
2022-08-16T08:27:32.494Z,100305.84
2022-08-16T08:28:20.475Z,100308.22
2022-08-16T08:29:08.679Z,100311.69
2022-08-16T08:30:49.015Z,100323.16
2022-08-16T08:31:05.191Z,100306.56
2022-08-16T08:31:55.414Z,100311.78
2022-08-16T08:33:00.514Z,100316.53
2022-08-16T08:33:56.895Z,100330.44
2022-08-16T08:34:46.522Z,100322.94
2022-08-16T08:35:35.200Z,100311.91
2022-08-16T08:36:33.434Z,100318.34
2022-08-16T08:37:51.164Z,100319.22
2022-08-16T08:38:44.164Z,100320.88
2022-08-16T08:39:33.564Z,100317.94
2022-08-16T08:40:24.577Z,100324.00
2022-08-16T08:41:18.873Z,100321.28
2022-08-16T08:42:09.878Z,100324.00
2022-08-16T08:43:12.130Z,100323.03
2022-08-16T08:44:29.866Z,100329.69
2022-08-16T08:45:29.811Z,100326.81
2022-08-16T08:46:22.021Z,100332.00
2022-08-16T08:47:12.261Z,100330.28
2022-08-16T08:47:58.920Z,100328.84
2022-08-16T08:48:59.644Z,100333.66
2022-08-16T08:49:55.717Z,100331.66
2022-08-16T08:50:50.152Z,100338.00
2022-08-16T08:51:38.271Z,100337.88
2022-08-16T08:52:34.890Z,100338.19
2022-08-16T08:53:30.452Z,100338.09
2022-08-16T08:54:18.773Z,100333.06
2022-08-16T08:55:14.212Z,100340.59
2022-08-16T08:56:23.673Z,100341.88
2022-08-16T08:57:21.030Z,100330.91
2022-08-16T08:58:18.666Z,100337.88
2022-08-16T08:59:22.288Z,100334.25
2022-08-16T09:00:12.990Z,100335.84
2022-08-16T09:01:07.099Z,100336.56
2022-08-16T09:01:57.960Z,100341.72
2022-08-16T09:03:00.577Z,100340.03
2022-08-16T09:03:52.831Z,100341.41
2022-08-16T09:04:39.374Z,100348.06
2022-08-16T09:05:36.034Z,100342.44
2022-08-16T09:06:26.616Z,100340.97
2022-08-16T09:07:13.500Z,100348.66
2022-08-16T09:08:05.569Z,100343.44
2022-08-16T09:09:16.900Z,100330.84
2022-08-16T09:10:20.199Z,100340.47
2022-08-16T09:11:08.608Z,100345.59
2022-08-16T09:12:06.462Z,100346.28
2022-08-16T09:13:02.038Z,100341.63
2022-08-16T09:13:59.179Z,100349.09
2022-08-16T09:14:49.440Z,100343.09
2022-08-16T09:15:39.675Z,100344.91
2022-08-16T09:17:02.329Z,100343.19
2022-08-16T09:17:48.918Z,100347.63
2022-08-16T09:18:36.884Z,100339.38
2022-08-16T09:19:32.844Z,100337.13
2022-08-16T09:20:20.346Z,100341.19
2022-08-16T09:21:10.522Z,100342.09
2022-08-16T09:21:58.371Z,100341.97
2022-08-16T09:22:51.417Z,100343.81
2022-08-16T09:23:41.945Z,100334.41
2022-08-16T09:24:52.551Z,100341.28
2022-08-16T09:25:38.398Z,100337.59
2022-08-16T09:26:45.573Z,100337.13
2022-08-16T09:27:57.200Z,100339.94
2022-08-16T09:29:16.243Z,100337.34
2022-08-16T09:29:59.904Z,100344.34
2022-08-16T09:30:48.108Z,100345.00
2022-08-16T09:31:36.105Z,100346.84
2022-08-16T09:32:30.600Z,100345.38
2022-08-16T09:33:19.998Z,100341.88
2022-08-16T09:34:07.424Z,100344.69
2022-08-16T09:34:54.109Z,100347.22
2022-08-16T09:35:47.014Z,100339.94
2022-08-16T09:36:45.963Z,100347.09
2022-08-16T09:37:36.269Z,100340.06
2022-08-16T09:38:31.191Z,100351.81
2022-08-16T09:39:21.639Z,100351.81
2022-08-16T09:40:33.038Z,100344.09
2022-08-16T09:41:16.880Z,100342.47
2022-08-16T09:42:03.586Z,100346.41
2022-08-16T09:42:56.565Z,100350.94
2022-08-16T09:43:58.193Z,100342.09
2022-08-16T09:45:12.535Z,100344.38
2022-08-16T09:45:54.587Z,100343.75
2022-08-16T09:46:48.632Z,100336.75
2022-08-16T09:47:57.201Z,100345.75
2022-08-16T09:48:51.655Z,100337.63
2022-08-16T09:49:41.144Z,100341.84
2022-08-16T09:50:36.861Z,100343.91
2022-08-16T09:51:26.384Z,100344.00
2022-08-16T09:52:23.197Z,100345.28
2022-08-16T09:53:17.809Z,100336.75
2022-08-16T09:54:09.442Z,100340.78
2022-08-16T09:54:56.529Z,100342.09
2022-08-16T09:55:46.429Z,100338.94
2022-08-16T09:56:38.993Z,100348.41
2022-08-16T09:57:25.610Z,100340.88
2022-08-16T09:58:40.722Z,100342.56
2022-08-16T09:59:31.336Z,100343.75
2022-08-16T10:00:44.188Z,100343.50
2022-08-16T10:01:31.824Z,100343.59
2022-08-16T10:02:26.621Z,100343.78
2022-08-16T10:03:16.642Z,100347.19
2022-08-16T10:04:04.706Z,100348.97
2022-08-16T10:04:55.120Z,100347.25
2022-08-16T10:05:42.095Z,100344.81
2022-08-16T10:06:33.226Z,100341.09
2022-08-16T10:07:20.678Z,100342.16
2022-08-16T10:08:25.708Z,100342.25
2022-08-16T10:09:15.352Z,100344.38
2022-08-16T10:10:07.467Z,100337.38
2022-08-16T10:11:24.131Z,100338.00
2022-08-16T10:12:30.275Z,100336.00
2022-08-16T10:13:16.812Z,100339.44
2022-08-16T10:14:04.455Z,100348.31
2022-08-16T10:14:50.927Z,100340.13
2022-08-16T10:15:39.920Z,100337.38
2022-08-16T10:16:28.875Z,100337.19
2022-08-16T10:17:15.805Z,100328.16
2022-08-16T10:19:02.390Z,100328.03
2022-08-16T10:19:14.070Z,100334.22
2022-08-16T10:20:06.250Z,100327.53